createdAt,value
2023-03-01T00:02:12.621Z,99.99
2023-03-01T00:04:39.104Z,100.00
2023-03-01T00:07:05.564Z,99.40
2023-03-01T00:09:32.026Z,100.00
2023-03-01T00:11:58.496Z,97.25
2023-03-01T00:14:25.250Z,96.02
2023-03-01T00:16:51.764Z,95.69
2023-03-01T00:19:19.200Z,94.86
2023-03-01T00:21:45.783Z,94.76
2023-03-01T00:24:12.333Z,95.81
2023-03-01T00:26:38.805Z,97.74
2023-03-01T00:29:05.294Z,97.24
2023-03-01T00:31:32.477Z,98.34
2023-03-01T00:34:00.769Z,99.45
2023-03-01T00:36:30.559Z,100.00
2023-03-01T00:38:57.252Z,100.00
2023-03-01T00:41:23.915Z,100.00
2023-03-01T00:43:50.789Z,100.00
2023-03-01T00:46:18.830Z,97.59
2023-03-01T00:48:45.627Z,94.18
2023-03-01T00:51:23.318Z,95.01
2023-03-01T00:53:53.620Z,95.95
2023-03-01T00:56:20.097Z,96.81
2023-03-01T00:58:46.692Z,96.63
2023-03-01T01:01:18.298Z,96.65
2023-03-01T01:03:49.578Z,96.61
2023-03-01T01:06:20.383Z,97.07
2023-03-01T01:08:46.889Z,96.30
2023-03-01T01:11:13.403Z,95.32
2023-03-01T01:13:40.297Z,94.49
2023-03-01T01:16:07.174Z,95.75
2023-03-01T01:18:33.736Z,95.57
2023-03-01T01:21:05.071Z,96.44
2023-03-01T01:23:31.529Z,97.30
2023-03-01T01:25:57.993Z,99.68
2023-03-01T01:28:24.569Z,100.00
2023-03-01T01:30:51.062Z,100.00
2023-03-01T01:33:17.543Z,100.00
2023-03-01T01:35:46.237Z,100.00
2023-03-01T01:38:12.755Z,100.00
2023-03-01T01:40:48.603Z,100.00
2023-03-01T01:43:23.473Z,100.00
2023-03-01T01:45:50.366Z,100.00
2023-03-01T01:48:24.633Z,100.00
2023-03-01T01:50:57.781Z,100.00
2023-03-01T01:53:24.244Z,100.00
2023-03-01T01:55:54.287Z,100.00
2023-03-01T01:58:20.608Z,100.00
2023-03-01T02:00:47.072Z,100.00
2023-03-01T02:03:18.288Z,100.00
2023-03-01T02:05:55.500Z,100.00
2023-03-01T02:08:22.657Z,100.00
2023-03-01T02:10:55.700Z,100.00
2023-03-01T02:13:22.165Z,100.00
2023-03-01T02:15:48.668Z,100.00
2023-03-01T02:18:17.370Z,100.00
2023-03-01T02:20:51.691Z,100.00
2023-03-01T02:23:18.162Z,100.00
2023-03-01T02:26:05.522Z,100.00
2023-03-01T02:28:36.193Z,100.00
2023-03-01T02:31:21.698Z,100.00
2023-03-01T02:33:49.420Z,100.00
2023-03-01T02:36:21.212Z,100.00
2023-03-01T02:38:48.813Z,100.00
2023-03-01T02:41:16.401Z,100.00
2023-03-01T02:43:42.910Z,100.00
2023-03-01T02:46:17.392Z,100.00
2023-03-01T02:48:48.959Z,100.00
2023-03-01T02:51:57.512Z,100.00
2023-03-01T02:54:49.844Z,100.00
2023-03-01T02:57:16.515Z,100.00
2023-03-01T02:59:43.545Z,100.00
2023-03-01T03:02:36.931Z,100.00
2023-03-01T03:05:27.592Z,100.00
2023-03-01T03:07:54.157Z,100.00
2023-03-01T03:10:28.988Z,100.00
2023-03-01T03:12:58.788Z,100.00
2023-03-01T03:15:25.414Z,100.00
2023-03-01T03:17:52.421Z,100.00
2023-03-01T03:20:20.343Z,100.00
2023-03-01T03:22:48.147Z,100.00
2023-03-01T03:25:14.662Z,100.00
2023-03-01T03:27:41.853Z,100.00
2023-03-01T03:30:09.877Z,100.00
2023-03-01T03:32:37.373Z,100.00
2023-03-01T03:35:10.326Z,100.00
2023-03-01T03:37:56.906Z,100.00
2023-03-01T03:40:23.391Z,100.00
2023-03-01T03:42:49.862Z,100.00
2023-03-01T03:45:17.212Z,100.00
2023-03-01T03:47:44.002Z,100.00
2023-03-01T03:50:17.884Z,100.00
2023-03-01T03:52:44.388Z,100.00
2023-03-01T03:55:14.493Z,100.00
2023-03-01T03:57:41.132Z,100.00
2023-03-01T04:00:14.199Z,100.00
2023-03-01T04:02:42.040Z,100.00
2023-03-01T04:05:10.002Z,100.00
2023-03-01T04:07:37.165Z,100.00
2023-03-01T04:10:08.001Z,100.00
2023-03-01T04:12:35.097Z,100.00
2023-03-01T04:15:14.603Z,100.00
2023-03-01T04:17:40.921Z,100.00
2023-03-01T04:20:08.688Z,100.00
2023-03-01T04:22:35.150Z,100.00
2023-03-01T04:25:02.952Z,100.00
2023-03-01T04:27:29.410Z,100.00
2023-03-01T04:29:55.878Z,100.00
2023-03-01T04:32:22.375Z,100.00
2023-03-01T04:34:48.844Z,100.00
2023-03-01T04:37:16.899Z,100.00
2023-03-01T04:39:48.596Z,100.00
2023-03-01T04:42:18.185Z,100.00
2023-03-01T04:44:45.219Z,100.00
2023-03-01T04:47:11.689Z,100.00
2023-03-01T04:49:38.164Z,100.00
2023-03-01T04:52:04.963Z,100.00
2023-03-01T04:54:32.051Z,100.00
2023-03-01T04:56:58.558Z,100.00
2023-03-01T04:59:25.289Z,100.00
2023-03-01T05:01:52.432Z,100.00
2023-03-01T05:04:19.163Z,100.00
2023-03-01T05:06:45.683Z,100.00
2023-03-01T05:09:12.393Z,100.00
2023-03-01T05:11:39.052Z,100.00
2023-03-01T05:14:06.454Z,100.00
2023-03-01T05:16:35.949Z,100.00
2023-03-01T05:19:12.202Z,100.00
2023-03-01T05:22:02.333Z,100.00
2023-03-01T05:24:29.522Z,100.00
2023-03-01T05:26:56.168Z,100.00
2023-03-01T05:29:25.914Z,100.00
2023-03-01T05:31:54.316Z,100.00
2023-03-01T05:34:24.883Z,100.00
2023-03-01T05:36:54.004Z,100.00
2023-03-01T05:39:22.505Z,100.00
2023-03-01T05:41:49.930Z,100.00
2023-03-01T05:44:16.908Z,100.00
2023-03-01T05:46:43.695Z,100.00
2023-03-01T05:49:10.183Z,100.00
2023-03-01T05:51:36.894Z,100.00
2023-03-01T05:54:03.478Z,100.00
2023-03-01T05:56:30.587Z,100.00
2023-03-01T05:58:57.185Z,100.00
2023-03-01T06:01:23.678Z,100.00
2023-03-01T06:03:50.145Z,100.00
2023-03-01T06:06:16.718Z,100.00
2023-03-01T06:08:43.198Z,100.00
2023-03-01T06:11:09.718Z,100.00
2023-03-01T06:13:36.482Z,100.00
2023-03-01T06:16:06.306Z,100.00
2023-03-01T06:18:32.808Z,100.00
2023-03-01T06:20:59.290Z,100.00
2023-03-01T06:23:25.831Z,100.00
2023-03-01T06:25:52.327Z,100.00
2023-03-01T06:28:18.782Z,100.00
2023-03-01T06:30:45.295Z,100.00
2023-03-01T06:33:11.762Z,100.00
2023-03-01T06:35:38.351Z,100.00
2023-03-01T06:38:05.003Z,100.00
2023-03-01T06:40:32.207Z,100.00
2023-03-01T06:42:58.885Z,100.00
2023-03-01T06:45:25.467Z,100.00
2023-03-01T06:47:51.935Z,100.00
2023-03-01T06:50:18.725Z,100.00
2023-03-01T06:55:13.176Z,100.00
2023-03-01T06:57:39.655Z,100.00
2023-03-01T07:00:06.855Z,100.00
2023-03-01T07:02:33.356Z,100.00
2023-03-01T07:04:59.817Z,99.99
2023-03-01T07:07:26.323Z,100.00
2023-03-01T07:09:54.133Z,99.55
2023-03-01T07:12:20.657Z,97.49
2023-03-01T07:14:47.133Z,97.14
2023-03-01T07:17:13.634Z,96.08
2023-03-01T07:19:40.111Z,95.06
2023-03-01T07:22:08.767Z,96.51
2023-03-01T07:24:35.271Z,95.42
2023-03-01T07:27:01.759Z,94.86
2023-03-01T07:29:29.756Z,95.61
2023-03-01T07:31:56.281Z,93.64
2023-03-01T07:34:22.745Z,93.11
2023-03-01T07:36:49.299Z,92.40
2023-03-01T07:39:16.735Z,91.43
2023-03-01T07:41:44.528Z,91.40
2023-03-01T07:44:11.744Z,90.45
2023-03-01T07:46:38.311Z,90.05
2023-03-01T07:49:05.543Z,89.88
2023-03-01T07:51:32.099Z,88.80
2023-03-01T07:53:58.559Z,87.76
2023-03-01T07:56:25.091Z,88.33
2023-03-01T07:58:51.569Z,87.01
2023-03-01T08:01:20.706Z,87.67
2023-03-01T08:03:47.354Z,87.56
2023-03-01T08:06:15.508Z,87.24
2023-03-01T08:08:41.995Z,85.56
2023-03-01T08:11:09.392Z,85.57
2023-03-01T08:13:35.894Z,83.64
2023-03-01T08:16:04.008Z,84.56
2023-03-01T08:18:30.573Z,82.68
2023-03-01T08:20:57.049Z,82.85
2023-03-01T08:23:23.567Z,83.17
2023-03-01T08:25:50.234Z,83.06
2023-03-01T08:28:16.747Z,82.26
2023-03-01T08:30:43.228Z,82.12
2023-03-01T08:33:09.766Z,83.52
2023-03-01T08:35:36.284Z,82.79
2023-03-01T08:38:02.789Z,83.67
2023-03-01T08:40:29.276Z,82.31
2023-03-01T08:42:55.771Z,80.36
2023-03-01T08:45:22.277Z,80.30
2023-03-01T08:47:48.807Z,78.87
2023-03-01T08:50:15.502Z,77.92
2023-03-01T08:52:42.025Z,79.17
2023-03-01T08:55:09.050Z,78.62
2023-03-01T08:57:35.535Z,78.46
2023-03-01T09:00:02.086Z,77.76
2023-03-01T09:02:28.714Z,78.37
2023-03-01T09:04:55.206Z,79.64
2023-03-01T09:07:21.699Z,79.13
2023-03-01T09:09:48.206Z,78.18
2023-03-01T09:12:14.781Z,77.69
2023-03-01T09:14:42.135Z,77.07
2023-03-01T09:17:08.629Z,76.26
2023-03-01T09:19:35.151Z,76.83
2023-03-01T09:22:01.820Z,76.41
2023-03-01T09:24:28.317Z,75.53
2023-03-01T09:26:55.696Z,76.50
2023-03-01T09:29:22.188Z,76.20
2023-03-01T09:31:48.748Z,75.47
2023-03-01T09:34:17.119Z,75.23
2023-03-01T09:36:43.649Z,75.31
2023-03-01T09:39:10.144Z,75.34
2023-03-01T09:41:49.356Z,75.38
2023-03-01T09:44:34.231Z,74.62
2023-03-01T09:47:00.881Z,74.36
2023-03-01T09:49:31.338Z,74.89
2023-03-01T09:52:20.342Z,73.58
2023-03-01T09:54:47.635Z,72.75
2023-03-01T09:57:20.538Z,72.21
2023-03-01T10:00:05.386Z,73.19
2023-03-01T10:02:39.533Z,71.79
2023-03-01T10:05:32.419Z,71.02
2023-03-01T10:08:24.656Z,70.34
2023-03-01T10:10:51.170Z,70.89
2023-03-01T10:13:22.409Z,69.96
2023-03-01T10:15:56.235Z,70.06
2023-03-01T10:18:30.318Z,70.19
2023-03-01T10:20:59.756Z,69.70
2023-03-01T10:23:28.934Z,70.41
2023-03-01T10:25:58.317Z,69.57
2023-03-01T10:28:32.345Z,70.85
2023-03-01T10:30:59.423Z,69.07
2023-03-01T10:33:30.472Z,69.34
2023-03-01T10:35:57.010Z,70.33
2023-03-01T10:38:23.568Z,68.26
2023-03-01T10:41:19.524Z,68.78
2023-03-01T10:43:53.603Z,69.25
2023-03-01T10:46:30.929Z,68.33
2023-03-01T10:49:14.767Z,69.02
2023-03-01T10:51:42.041Z,67.80
2023-03-01T10:54:18.867Z,67.32
2023-03-01T10:56:54.591Z,67.02
2023-03-01T10:59:33.082Z,67.61
2023-03-01T11:02:25.383Z,66.00
2023-03-01T11:05:14.012Z,66.00
2023-03-01T11:07:54.066Z,66.73
2023-03-01T11:10:31.333Z,66.42
2023-03-01T11:13:16.021Z,66.06
2023-03-01T11:15:42.584Z,65.44
2023-03-01T11:18:20.453Z,65.57
2023-03-01T11:20:47.026Z,64.74
2023-03-01T11:23:14.236Z,64.32
2023-03-01T11:25:45.258Z,64.25
2023-03-01T11:28:15.562Z,63.38
2023-03-01T11:31:05.591Z,62.50
2023-03-01T11:33:57.667Z,62.85
2023-03-01T11:36:50.495Z,63.73
2023-03-01T11:39:33.837Z,63.95
2023-03-01T11:42:19.360Z,63.25
2023-03-01T11:44:47.318Z,64.17
2023-03-01T11:47:32.339Z,65.10
2023-03-01T11:50:07.874Z,63.57
2023-03-01T11:52:53.412Z,64.18
2023-03-01T11:55:37.694Z,65.00
2023-03-01T11:58:15.136Z,63.01
2023-03-01T12:00:56.719Z,61.62
2023-03-01T12:03:43.485Z,61.11
2023-03-01T12:06:25.199Z,61.55
2023-03-01T12:09:02.352Z,60.04
2023-03-01T12:11:59.142Z,59.98
2023-03-01T12:14:47.443Z,60.35
2023-03-01T12:17:45.982Z,62.26
2023-03-01T12:20:15.574Z,56.83
2023-03-01T12:22:54.980Z,58.69
2023-03-01T12:25:40.704Z,59.23
2023-03-01T12:28:24.976Z,56.75
2023-03-01T12:31:01.483Z,58.42
2023-03-01T12:33:46.818Z,60.12
2023-03-01T12:36:16.571Z,58.83
2023-03-01T12:38:47.277Z,56.01
2023-03-01T12:41:52.441Z,59.13
2023-03-01T12:44:29.231Z,57.39
2023-03-01T12:47:17.140Z,61.16
2023-03-01T12:49:49.262Z,58.41
2023-03-01T12:52:36.842Z,57.14
2023-03-01T12:55:03.774Z,58.32
2023-03-01T12:57:38.121Z,58.67
2023-03-01T13:00:38.176Z,57.02
2023-03-01T13:03:17.665Z,57.37
2023-03-01T13:06:09.134Z,57.49
2023-03-01T13:08:42.875Z,57.09
2023-03-01T13:11:17.691Z,54.57
2023-03-01T13:13:44.161Z,55.75
2023-03-01T13:16:40.785Z,58.02
2023-03-01T13:19:11.329Z,58.09
2023-03-01T13:21:37.823Z,57.96
2023-03-01T13:24:04.589Z,59.97
2023-03-01T13:26:31.549Z,56.62
2023-03-01T13:28:58.418Z,57.20
2023-03-01T13:31:27.823Z,57.15
2023-03-01T13:33:55.682Z,56.87
2023-03-01T13:36:49.076Z,57.12
2023-03-01T13:39:32.279Z,56.74
2023-03-01T13:41:58.875Z,57.68
2023-03-01T13:44:25.414Z,57.92
2023-03-01T13:46:52.686Z,58.38
2023-03-01T13:49:23.747Z,57.77
2023-03-01T13:51:50.516Z,57.96
2023-03-01T13:54:19.414Z,58.65
2023-03-01T13:56:45.880Z,56.81
2023-03-01T13:59:20.119Z,58.14
2023-03-01T14:01:53.341Z,59.83
2023-03-01T14:04:22.251Z,57.73
2023-03-01T14:06:48.746Z,58.42
2023-03-01T14:09:24.749Z,59.00
2023-03-01T14:12:03.438Z,57.68
2023-03-01T14:14:46.353Z,59.56
2023-03-01T14:17:37.942Z,59.87
2023-03-01T14:20:12.759Z,60.94
2023-03-01T14:22:39.393Z,59.98
2023-03-01T14:25:26.036Z,60.39
2023-03-01T14:28:17.524Z,60.23
2023-03-01T14:30:45.752Z,60.91
2023-03-01T14:33:26.243Z,60.11
2023-03-01T14:36:00.602Z,59.96
2023-03-01T14:38:35.593Z,60.47
2023-03-01T14:41:08.290Z,60.79
2023-03-01T14:43:34.778Z,60.78
2023-03-01T14:46:01.291Z,61.31
2023-03-01T14:48:28.179Z,61.97
2023-03-01T14:50:54.698Z,62.24
2023-03-01T14:53:25.891Z,62.69
2023-03-01T14:55:56.930Z,61.55
2023-03-01T14:58:25.555Z,60.35
2023-03-01T15:00:54.381Z,60.91
2023-03-01T15:03:38.099Z,62.29
2023-03-01T15:06:05.334Z,62.65
2023-03-01T15:08:34.015Z,63.20
2023-03-01T15:11:02.017Z,62.94
2023-03-01T15:13:31.862Z,63.43
2023-03-01T15:16:03.755Z,63.20
2023-03-01T15:18:30.426Z,62.87
2023-03-01T15:20:57.023Z,63.29
2023-03-01T15:23:24.291Z,62.57
2023-03-01T15:25:57.310Z,63.09
2023-03-01T15:28:53.750Z,63.33
2023-03-01T15:31:21.442Z,63.67
2023-03-01T15:33:48.258Z,64.21
2023-03-01T15:36:34.807Z,64.77
2023-03-01T15:39:01.535Z,64.68
2023-03-01T15:41:28.867Z,64.68
2023-03-01T15:43:56.483Z,64.85
2023-03-01T15:46:31.470Z,64.83
2023-03-01T15:49:17.404Z,65.18
2023-03-01T15:51:43.869Z,65.63
2023-03-01T15:54:19.693Z,65.56
2023-03-01T15:56:46.223Z,65.60
2023-03-01T15:59:14.333Z,66.14
2023-03-01T16:01:41.762Z,66.11
2023-03-01T16:04:17.114Z,66.16
2023-03-01T16:06:43.624Z,66.44
2023-03-01T16:09:10.113Z,66.70
2023-03-01T16:11:37.859Z,66.75
2023-03-01T16:14:04.399Z,66.68
2023-03-01T16:16:31.311Z,66.42
2023-03-01T16:18:58.058Z,66.66
2023-03-01T16:21:25.653Z,66.56
2023-03-01T16:23:52.242Z,66.87
2023-03-01T16:26:21.381Z,67.28
2023-03-01T16:28:48.181Z,67.58
2023-03-01T16:31:17.856Z,67.60
2023-03-01T16:33:50.305Z,67.00
2023-03-01T16:36:17.986Z,67.20
2023-03-01T16:38:44.545Z,67.95
2023-03-01T16:41:13.262Z,67.94
2023-03-01T16:43:40.536Z,67.98
2023-03-01T16:46:18.020Z,69.10
2023-03-01T16:48:44.528Z,69.16
2023-03-01T16:51:11.110Z,69.29
2023-03-01T16:53:37.668Z,68.84
2023-03-01T16:56:05.495Z,69.36
2023-03-01T16:58:31.980Z,69.50
2023-03-01T17:01:13.266Z,69.41
2023-03-01T17:03:40.095Z,68.69
2023-03-01T17:06:08.464Z,69.18
2023-03-01T17:08:35.123Z,68.78
2023-03-01T17:11:12.937Z,69.73
2023-03-01T17:13:39.602Z,70.12
2023-03-01T17:16:07.241Z,70.34
2023-03-01T17:18:33.907Z,70.95
2023-03-01T17:21:00.436Z,70.96
2023-03-01T17:23:27.874Z,71.23
2023-03-01T17:25:55.896Z,71.32
2023-03-01T17:28:23.437Z,71.95
2023-03-01T17:30:49.952Z,72.65
2023-03-01T17:33:16.661Z,72.77
2023-03-01T17:35:46.154Z,74.18
2023-03-01T17:38:13.810Z,75.97
2023-03-01T17:40:40.286Z,76.51
2023-03-01T17:43:06.769Z,76.22
2023-03-01T17:45:33.288Z,75.50
2023-03-01T17:47:59.750Z,75.10
2023-03-01T17:50:26.259Z,74.74
2023-03-01T17:52:52.785Z,75.15
2023-03-01T17:55:19.349Z,75.63
2023-03-01T17:57:45.817Z,76.72
2023-03-01T18:00:13.081Z,77.96
2023-03-01T18:02:39.633Z,77.46
2023-03-01T18:05:06.602Z,77.59
2023-03-01T18:07:33.083Z,78.54
2023-03-01T18:09:59.563Z,78.68
2023-03-01T18:12:26.087Z,78.54
2023-03-01T18:14:55.411Z,78.45
2023-03-01T18:17:23.823Z,78.03
2023-03-01T18:19:50.905Z,77.87
2023-03-01T18:22:17.412Z,78.46
2023-03-01T18:24:43.909Z,78.43
2023-03-01T18:28:10.259Z,79.93
2023-03-01T18:30:36.883Z,81.10
2023-03-01T18:33:03.335Z,81.71
2023-03-01T18:35:31.483Z,83.27
2023-03-01T18:37:58.040Z,84.51
2023-03-01T18:40:24.626Z,85.14
2023-03-01T18:42:51.140Z,84.56
2023-03-01T18:45:19.272Z,84.44
2023-03-01T18:47:47.397Z,84.14
2023-03-01T18:50:13.859Z,85.54
2023-03-01T18:52:40.337Z,85.62
2023-03-01T18:55:06.879Z,86.18
2023-03-01T18:57:33.351Z,86.36
2023-03-01T18:59:59.813Z,86.49
2023-03-01T19:02:26.338Z,85.85
2023-03-01T19:04:52.878Z,85.13
2023-03-01T19:07:20.412Z,84.93
2023-03-01T19:09:46.904Z,85.28
2023-03-01T19:12:13.386Z,85.38
2023-03-01T19:14:39.861Z,85.08
2023-03-01T19:17:06.371Z,84.68
2023-03-01T19:19:32.882Z,84.10
2023-03-01T19:22:05.680Z,83.34
2023-03-01T19:24:32.897Z,82.80
2023-03-01T19:26:59.372Z,82.36
2023-03-01T19:29:26.306Z,82.20
2023-03-01T19:31:52.825Z,81.80
2023-03-01T19:34:19.390Z,81.20
2023-03-01T19:36:47.268Z,80.84
2023-03-01T19:39:14.149Z,79.95
2023-03-01T19:41:41.120Z,79.20
2023-03-01T19:44:08.594Z,79.29
2023-03-01T19:46:35.651Z,79.18
2023-03-01T19:49:03.385Z,79.41
2023-03-01T19:51:30.545Z,79.13
2023-03-01T19:53:57.068Z,79.22
2023-03-01T19:56:23.542Z,79.60
2023-03-01T19:58:51.125Z,79.44
2023-03-01T20:01:19.519Z,78.87
2023-03-01T20:03:46.094Z,78.95
2023-03-01T20:06:17.259Z,79.78
2023-03-01T20:08:44.604Z,79.52
2023-03-01T20:11:12.001Z,79.75
2023-03-01T20:13:38.519Z,78.37
2023-03-01T20:16:05.384Z,77.52
2023-03-01T20:18:31.919Z,76.86
2023-03-01T20:20:58.498Z,76.77
2023-03-01T20:23:25.011Z,76.81
2023-03-01T20:25:51.596Z,76.92
2023-03-01T20:28:18.484Z,77.89
2023-03-01T20:30:45.357Z,80.43
2023-03-01T20:33:11.902Z,81.17
2023-03-01T20:35:42.446Z,80.81
2023-03-01T20:38:08.934Z,80.50
2023-03-01T20:40:36.469Z,79.97
2023-03-01T20:43:02.935Z,79.80
2023-03-01T20:45:29.410Z,79.66
2023-03-01T20:47:55.885Z,80.07
2023-03-01T20:50:22.454Z,79.86
2023-03-01T20:52:49.066Z,80.20
2023-03-01T20:55:15.549Z,80.21
2023-03-01T20:57:42.143Z,79.97
2023-03-01T21:00:09.564Z,80.23
2023-03-01T21:02:36.099Z,80.35
2023-03-01T21:05:02.651Z,80.21
2023-03-01T21:07:29.161Z,81.99
2023-03-01T21:09:55.735Z,83.01
2023-03-01T21:12:22.577Z,82.60
2023-03-01T21:14:49.128Z,81.85
2023-03-01T21:17:16.685Z,80.71
2023-03-01T21:19:43.791Z,80.05
2023-03-01T21:22:14.289Z,79.99
2023-03-01T21:24:42.298Z,78.33
2023-03-01T21:27:09.618Z,77.51
2023-03-01T21:29:40.479Z,76.70
2023-03-01T21:32:07.311Z,77.03
2023-03-01T21:34:34.361Z,77.17
2023-03-01T21:37:01.788Z,78.15
2023-03-01T21:39:29.120Z,77.94
2023-03-01T21:41:56.518Z,78.52
2023-03-01T21:44:23.973Z,79.23
2023-03-01T21:46:50.470Z,78.50
2023-03-01T21:49:16.980Z,79.27
2023-03-01T21:51:43.492Z,79.07
2023-03-01T21:54:12.331Z,79.05
2023-03-01T21:56:39.865Z,79.35
2023-03-01T21:59:17.023Z,80.04
2023-03-01T22:01:43.528Z,79.48
2023-03-01T22:04:10.060Z,80.64
2023-03-01T22:06:41.282Z,80.38
2023-03-01T22:09:18.625Z,80.64
2023-03-01T22:11:48.790Z,80.10
2023-03-01T22:14:15.649Z,81.60
2023-03-01T22:16:43.296Z,81.32
2023-03-01T22:19:09.930Z,81.55
2023-03-01T22:21:39.278Z,81.50
2023-03-01T22:24:06.345Z,80.43
2023-03-01T22:26:37.766Z,80.80
2023-03-01T22:29:07.180Z,80.46
2023-03-01T22:31:33.968Z,81.09
2023-03-01T22:34:00.555Z,81.68
2023-03-01T22:36:27.231Z,82.54
2023-03-01T22:38:59.848Z,81.98
2023-03-01T22:41:30.226Z,81.03
2023-03-01T22:43:56.803Z,81.83
2023-03-01T22:46:23.785Z,81.56
2023-03-01T22:48:50.340Z,81.44
2023-03-01T22:51:22.073Z,80.31
2023-03-01T22:53:48.605Z,81.81
2023-03-01T22:56:17.080Z,82.60
2023-03-01T22:58:43.588Z,81.32
2023-03-01T23:01:15.379Z,80.22
2023-03-01T23:03:41.882Z,80.34
2023-03-01T23:06:08.510Z,79.04
2023-03-01T23:08:34.992Z,79.45
2023-03-01T23:11:01.481Z,79.66
2023-03-01T23:13:28.034Z,79.58
2023-03-01T23:15:55.478Z,79.61
2023-03-01T23:18:22.230Z,79.53
2023-03-01T23:20:48.792Z,81.17
2023-03-01T23:23:15.291Z,81.59
2023-03-01T23:25:41.763Z,81.92
2023-03-01T23:28:08.248Z,81.75
2023-03-01T23:30:34.839Z,81.89
2023-03-01T23:33:01.354Z,81.66
2023-03-01T23:35:27.843Z,81.61
2023-03-01T23:37:54.640Z,80.91
2023-03-01T23:40:21.142Z,81.72
2023-03-01T23:42:47.618Z,82.28
2023-03-01T23:45:14.078Z,82.23
2023-03-01T23:47:40.557Z,82.59
2023-03-01T23:50:07.218Z,82.68
2023-03-01T23:52:36.714Z,82.32
2023-03-01T23:55:03.260Z,81.85
2023-03-01T23:57:29.748Z,81.22
2023-03-01T23:59:56.273Z,81.13
